createdAt,value
2018-09-13T00:00:15.190Z,61.40
2018-09-13T00:02:42.966Z,60.85
2018-09-13T00:05:11.326Z,61.45
2018-09-13T00:07:39.008Z,61.58
2018-09-13T00:10:06.741Z,61.27
2018-09-13T00:12:34.405Z,61.17
2018-09-13T00:15:02.071Z,61.67
2018-09-13T00:17:30.065Z,60.99
2018-09-13T00:19:57.773Z,61.31
2018-09-13T00:22:25.444Z,61.59
2018-09-13T00:24:53.556Z,61.22
2018-09-13T00:27:21.557Z,61.87
2018-09-13T00:29:49.836Z,61.79
2018-09-13T00:32:17.771Z,61.95
2018-09-13T00:34:45.818Z,61.82
2018-09-13T00:37:13.491Z,61.62
2018-09-13T00:39:41.147Z,61.83
2018-09-13T00:42:08.806Z,61.77
2018-09-13T00:44:36.525Z,61.17
2018-09-13T00:47:08.640Z,61.25
2018-09-13T00:49:36.413Z,61.20
2018-09-13T00:52:04.069Z,61.66
2018-09-13T00:54:32.260Z,61.28
2018-09-13T00:57:00.500Z,61.45
2018-09-13T00:59:28.417Z,61.35
2018-09-13T01:01:56.080Z,61.87
2018-09-13T01:04:23.725Z,61.91
2018-09-13T01:06:52.140Z,61.88
2018-09-13T01:09:20.024Z,61.99
2018-09-13T01:11:47.760Z,61.90
2018-09-13T01:14:15.905Z,61.32
2018-09-13T01:16:43.770Z,62.00
2018-09-13T01:19:12.092Z,61.35
2018-09-13T01:21:40.141Z,61.91
2018-09-13T01:24:07.791Z,62.33
2018-09-13T01:26:35.719Z,61.41
2018-09-13T01:29:03.457Z,62.25
2018-09-13T01:31:31.455Z,61.78
2018-09-13T01:33:59.352Z,61.56
2018-09-13T01:36:27.367Z,61.56
2018-09-13T01:38:55.114Z,61.63
2018-09-13T01:41:22.749Z,62.02
2018-09-13T01:43:51.509Z,61.89
2018-09-13T01:46:19.178Z,61.14
2018-09-13T01:48:47.936Z,61.87
2018-09-13T01:51:15.638Z,61.35
2018-09-13T01:53:43.936Z,61.27
2018-09-13T01:56:11.663Z,61.19
2018-09-13T01:58:39.301Z,61.87
2018-09-13T02:01:07.390Z,61.71
2018-09-13T02:03:35.325Z,61.09
2018-09-13T02:06:03.355Z,61.54
2018-09-13T02:08:31.327Z,61.03
2018-09-13T02:10:58.966Z,61.58
2018-09-13T02:13:26.983Z,61.40
2018-09-13T02:15:54.980Z,61.03
2018-09-13T02:18:23.001Z,61.11
2018-09-13T02:20:50.685Z,61.67
2018-09-13T02:23:18.350Z,61.16
2018-09-13T02:25:46.020Z,61.36
2018-09-13T02:28:14.104Z,61.46
2018-09-13T02:30:42.013Z,62.01
2018-09-13T02:33:10.124Z,61.36
2018-09-13T02:35:37.785Z,61.45
2018-09-13T02:38:05.566Z,61.92
2018-09-13T02:40:33.281Z,61.72
2018-09-13T02:43:01.253Z,62.39
2018-09-13T02:45:29.536Z,61.69
2018-09-13T02:47:57.548Z,61.69
2018-09-13T02:50:25.245Z,62.02
2018-09-13T02:52:53.130Z,61.83
2018-09-13T02:55:21.127Z,61.84
2018-09-13T02:57:49.140Z,61.81
2018-09-13T03:00:17.142Z,61.76
2018-09-13T03:02:44.821Z,62.33
2018-09-13T03:05:12.702Z,62.41
2018-09-13T03:07:40.782Z,62.31
2018-09-13T03:10:08.466Z,61.52
2018-09-13T03:12:36.374Z,61.79
2018-09-13T03:15:04.999Z,61.67
2018-09-13T03:17:32.721Z,61.30
2018-09-13T03:20:00.401Z,61.90
2018-09-13T03:22:28.115Z,61.76
2018-09-13T03:24:56.320Z,61.79
2018-09-13T03:27:24.096Z,62.25
2018-09-13T03:29:52.659Z,62.40
2018-09-13T03:32:21.315Z,61.86
2018-09-13T03:34:49.341Z,62.20
2018-09-13T03:37:17.861Z,61.84
2018-09-13T03:39:45.835Z,61.68
2018-09-13T03:42:13.492Z,61.88
2018-09-13T03:44:41.171Z,62.07
2018-09-13T03:47:09.122Z,61.79
2018-09-13T03:49:37.141Z,61.12
2018-09-13T03:52:04.838Z,61.36
2018-09-13T03:54:32.513Z,61.63
2018-09-13T03:57:00.198Z,61.11
2018-09-13T03:59:27.945Z,60.98
2018-09-13T04:01:56.780Z,60.93
2018-09-13T04:04:25.168Z,61.20
2018-09-13T04:06:52.822Z,60.84
2018-09-13T04:09:20.906Z,61.14
2018-09-13T04:11:48.507Z,60.85
2018-09-13T04:14:16.211Z,61.07
2018-09-13T04:16:44.199Z,61.20
2018-09-13T04:19:11.900Z,61.86
2018-09-13T04:21:39.891Z,61.29
2018-09-13T04:24:07.598Z,61.08
2018-09-13T04:26:35.235Z,62.00
2018-09-13T04:29:03.253Z,61.33
2018-09-13T04:31:31.420Z,60.99
2018-09-13T04:33:59.159Z,60.85
2018-09-13T04:36:26.868Z,60.93
2018-09-13T04:38:54.590Z,60.68
2018-09-13T04:41:22.387Z,60.75
2018-09-13T04:43:50.418Z,60.71
2018-09-13T04:46:18.074Z,60.87
2018-09-13T04:48:45.750Z,60.40
2018-09-13T04:51:13.864Z,60.64
2018-09-13T04:53:42.034Z,60.46
2018-09-13T04:56:09.816Z,60.63
2018-09-13T04:58:37.558Z,60.41
2018-09-13T05:01:05.815Z,60.13
2018-09-13T05:03:33.526Z,60.33
2018-09-13T05:06:01.178Z,60.19
2018-09-13T05:08:29.201Z,60.13
2018-09-13T05:10:56.859Z,59.95
2018-09-13T05:13:24.537Z,60.16
2018-09-13T05:15:52.238Z,59.90
2018-09-13T05:18:20.162Z,59.55
2018-09-13T05:20:47.942Z,60.05
2018-09-13T05:23:15.565Z,59.81
2018-09-13T05:25:43.896Z,59.92
2018-09-13T05:28:11.817Z,60.44
2018-09-13T05:30:39.719Z,59.70
2018-09-13T05:33:07.771Z,60.45
2018-09-13T05:35:35.460Z,60.24
2018-09-13T05:38:03.676Z,60.60
2018-09-13T05:40:31.606Z,60.66
2018-09-13T05:42:59.635Z,60.55
2018-09-13T05:45:28.432Z,60.20
2018-09-13T05:47:56.125Z,60.16
2018-09-13T05:50:23.821Z,60.17
2018-09-13T05:52:52.327Z,60.29
2018-09-13T05:55:20.223Z,59.88
2018-09-13T05:57:47.830Z,60.06
2018-09-13T06:00:15.558Z,60.21
2018-09-13T06:02:43.916Z,59.82
2018-09-13T06:05:11.772Z,59.73
2018-09-13T06:07:39.869Z,59.62
2018-09-13T06:10:07.867Z,59.55
2018-09-13T06:12:35.800Z,59.57
2018-09-13T06:15:03.856Z,59.11
2018-09-13T06:17:31.511Z,58.87
2018-09-13T06:20:00.606Z,59.36
2018-09-13T06:22:28.622Z,59.30
2018-09-13T06:24:56.321Z,58.62
2018-09-13T06:27:24.279Z,58.64
2018-09-13T06:29:52.560Z,58.14
2018-09-13T06:32:20.372Z,58.45
2018-09-13T06:34:48.630Z,58.71
2018-09-13T06:37:16.358Z,58.35
2018-09-13T06:39:44.101Z,58.54
2018-09-13T06:42:12.055Z,57.93
2018-09-13T06:44:39.790Z,57.92
2018-09-13T06:47:07.684Z,57.83
2018-09-13T06:49:35.354Z,57.71
2018-09-13T06:52:03.054Z,58.07
2018-09-13T06:54:30.716Z,58.36
2018-09-13T06:56:58.425Z,58.20
2018-09-13T06:59:26.107Z,58.06
2018-09-13T07:01:54.046Z,57.64
2018-09-13T07:04:22.381Z,58.07
2018-09-13T07:06:50.430Z,57.65
2018-09-13T07:09:18.309Z,57.42
2018-09-13T07:11:46.850Z,58.01
2018-09-13T07:14:14.755Z,57.40
2018-09-13T07:16:42.660Z,57.71
2018-09-13T07:19:10.399Z,57.44
2018-09-13T07:21:38.374Z,57.81
2018-09-13T07:24:06.110Z,57.11
2018-09-13T07:26:33.863Z,57.78
2018-09-13T07:29:02.210Z,57.70
2018-09-13T07:31:29.916Z,57.01
2018-09-13T07:33:57.593Z,57.05
2018-09-13T07:36:25.642Z,57.60
2018-09-13T07:38:53.673Z,57.07
2018-09-13T07:41:21.503Z,57.52
2018-09-13T07:43:49.452Z,57.45
2018-09-13T07:46:17.353Z,56.93
2018-09-13T07:48:45.328Z,57.46
2018-09-13T07:51:13.265Z,57.19
2018-09-13T07:53:40.895Z,57.21
2018-09-13T07:56:09.123Z,57.04
2018-09-13T07:58:36.921Z,57.01
2018-09-13T08:01:04.856Z,57.01
2018-09-13T08:03:32.591Z,56.62
2018-09-13T08:06:00.557Z,57.01
2018-09-13T08:08:28.629Z,56.44
2018-09-13T08:10:56.298Z,57.08
2018-09-13T08:13:24.247Z,56.91
2018-09-13T08:15:52.040Z,57.08
2018-09-13T08:18:20.224Z,56.33
2018-09-13T08:20:48.506Z,56.58
2018-09-13T08:23:16.532Z,56.47
2018-09-13T08:25:44.185Z,56.87
2018-09-13T08:28:11.917Z,56.84
2018-09-13T08:30:39.544Z,56.31
2018-09-13T08:33:07.404Z,56.23
2018-09-13T08:35:35.082Z,56.20
2018-09-13T08:38:02.871Z,56.67
2018-09-13T08:40:30.663Z,55.96
2018-09-13T08:42:58.339Z,56.62
2018-09-13T08:45:26.336Z,56.58
2018-09-13T08:47:54.282Z,56.01
2018-09-13T08:50:22.203Z,56.21
2018-09-13T08:52:49.868Z,55.46
2018-09-13T08:55:17.571Z,55.14
2018-09-13T08:57:45.291Z,55.12
2018-09-13T09:00:14.088Z,55.29
2018-09-13T09:02:42.543Z,54.85
2018-09-13T09:05:10.346Z,54.78
2018-09-13T09:07:38.683Z,55.36
2018-09-13T09:10:06.414Z,54.74
2018-09-13T09:12:34.159Z,55.19
2018-09-13T09:15:01.830Z,54.83
2018-09-13T09:17:29.801Z,54.83
2018-09-13T09:19:57.673Z,54.16
2018-09-13T09:22:25.520Z,54.73
2018-09-13T09:24:54.322Z,53.98
2018-09-13T09:27:22.021Z,54.30
2018-09-13T09:29:49.725Z,53.85
2018-09-13T09:32:17.561Z,54.46
2018-09-13T09:34:45.796Z,53.79
2018-09-13T09:37:13.805Z,53.81
2018-09-13T09:39:41.549Z,53.86
2018-09-13T09:42:09.443Z,53.80
2018-09-13T09:44:37.437Z,54.30
2018-09-13T09:47:05.454Z,54.15
2018-09-13T09:49:33.818Z,53.55
2018-09-13T09:52:02.768Z,53.49
2018-09-13T09:54:30.645Z,53.33
2018-09-13T09:56:58.315Z,53.32
2018-09-13T09:59:25.959Z,53.80
2018-09-13T10:01:59.205Z,53.82
2018-09-13T10:04:26.852Z,52.93
2018-09-13T10:06:55.137Z,53.64
2018-09-13T10:09:23.280Z,53.58
2018-09-13T10:11:50.946Z,52.79
2018-09-13T10:14:18.926Z,53.42
2018-09-13T10:16:52.503Z,52.92
2018-09-13T10:19:25.738Z,52.70
2018-09-13T10:21:59.018Z,52.84
2018-09-13T10:24:32.538Z,53.01
2018-09-13T10:27:05.750Z,53.35
2018-09-13T10:33:23.599Z,53.58
2018-09-13T10:35:56.807Z,53.21
2018-09-13T10:38:30.642Z,53.36
2018-09-13T10:43:11.405Z,53.08
2018-09-13T10:45:44.776Z,53.04
2018-09-13T10:48:19.016Z,53.45
2018-09-13T10:50:52.239Z,53.13
2018-09-13T10:53:27.063Z,52.96
2018-09-13T10:55:55.766Z,52.10
2018-09-13T10:58:23.806Z,52.16
2018-09-13T11:00:52.150Z,52.04
2018-09-13T11:03:19.814Z,52.05
2018-09-13T11:05:47.959Z,52.08
2018-09-13T11:08:15.691Z,52.22
2018-09-13T11:10:43.491Z,53.01
2018-09-13T11:13:16.921Z,53.08
2018-09-13T11:15:45.114Z,53.08
2018-09-13T11:18:13.749Z,52.42
2018-09-13T11:20:41.453Z,52.16
2018-09-13T11:23:09.276Z,52.74
2018-09-13T11:25:36.998Z,52.87
2018-09-13T11:28:05.601Z,52.84
2018-09-13T11:30:33.644Z,52.12
2018-09-13T11:33:01.289Z,52.16
2018-09-13T11:35:29.296Z,52.59
2018-09-13T11:37:57.281Z,52.85
2018-09-13T11:40:25.937Z,52.46
2018-09-13T11:42:53.926Z,52.66
2018-09-13T11:45:21.632Z,52.25
2018-09-13T11:47:49.588Z,51.25
2018-09-13T11:50:17.277Z,51.76
2018-09-13T11:52:44.934Z,51.58
2018-09-13T11:55:12.936Z,51.27
2018-09-13T11:57:40.637Z,51.44
2018-09-13T12:00:08.635Z,51.80
2018-09-13T12:02:36.320Z,51.02
2018-09-13T12:05:04.098Z,51.56
2018-09-13T12:07:31.742Z,50.88
2018-09-13T12:10:00.050Z,51.31
2018-09-13T12:12:27.956Z,50.66
2018-09-13T12:14:55.629Z,51.16
2018-09-13T12:17:23.259Z,50.98
2018-09-13T12:19:51.407Z,51.46
2018-09-13T12:22:19.034Z,51.41
2018-09-13T12:24:46.946Z,51.53
2018-09-13T12:27:15.294Z,51.13
2018-09-13T12:29:43.268Z,51.52
2018-09-13T12:32:10.961Z,51.82
2018-09-13T12:34:39.654Z,51.46
2018-09-13T12:37:07.295Z,50.92
2018-09-13T12:39:35.876Z,51.44
2018-09-13T12:42:03.928Z,51.22
2018-09-13T12:44:32.434Z,51.78
2018-09-13T12:47:00.144Z,51.71
2018-09-13T12:49:27.918Z,51.56
2018-09-13T12:51:55.907Z,52.15
2018-09-13T12:54:23.625Z,51.40
2018-09-13T12:56:51.402Z,51.07
2018-09-13T12:59:19.931Z,51.41
2018-09-13T13:01:48.224Z,51.42
2018-09-13T13:04:16.357Z,51.69
2018-09-13T13:06:44.528Z,50.89
2018-09-13T13:09:12.675Z,50.92
2018-09-13T13:11:40.970Z,50.47
2018-09-13T13:14:08.616Z,51.33
2018-09-13T13:16:36.643Z,50.95
2018-09-13T13:19:04.610Z,50.36
2018-09-13T13:21:32.481Z,51.02
2018-09-13T13:24:00.482Z,49.86
2018-09-13T13:26:28.398Z,49.69
2018-09-13T13:28:56.095Z,50.06
2018-09-13T13:31:23.820Z,50.52
2018-09-13T13:33:51.439Z,50.15
2018-09-13T13:36:19.182Z,50.37
2018-09-13T13:38:46.884Z,50.97
2018-09-13T13:41:14.541Z,50.47
2018-09-13T13:43:42.270Z,50.92
2018-09-13T13:46:09.915Z,50.39
2018-09-13T13:48:37.859Z,50.25
2018-09-13T13:51:05.444Z,50.40
2018-09-13T13:53:33.305Z,50.18
2018-09-13T13:56:01.411Z,50.59
2018-09-13T13:58:29.431Z,50.64
2018-09-13T14:00:57.369Z,49.99
2018-09-13T14:03:25.031Z,49.19
2018-09-13T14:05:52.755Z,49.83
2018-09-13T14:08:20.985Z,49.21
2018-09-13T14:10:48.705Z,49.58
2018-09-13T14:13:16.543Z,48.86
2018-09-13T14:15:44.794Z,48.41
2018-09-13T14:18:12.729Z,48.40
2018-09-13T14:20:40.825Z,47.84
2018-09-13T14:23:09.548Z,47.53
2018-09-13T14:25:37.734Z,47.40
2018-09-13T14:28:05.642Z,46.25
2018-09-13T14:30:33.854Z,46.39
2018-09-13T14:33:01.790Z,45.55
2018-09-13T14:35:29.746Z,45.19
2018-09-13T14:37:57.359Z,45.82
2018-09-13T14:40:25.065Z,46.18
2018-09-13T14:42:53.295Z,45.67
2018-09-13T14:45:21.650Z,45.54
2018-09-13T14:47:50.015Z,44.62
2018-09-13T14:50:18.229Z,45.38
2018-09-13T14:52:46.161Z,45.43
2018-09-13T14:55:14.393Z,44.69
2018-09-13T14:57:42.367Z,43.80
2018-09-13T15:00:10.417Z,44.58
2018-09-13T15:02:38.536Z,44.21
2018-09-13T15:05:06.289Z,43.63
2018-09-13T15:07:34.813Z,42.93
2018-09-13T15:10:02.784Z,43.71
2018-09-13T15:12:30.725Z,43.64
2018-09-13T15:14:58.693Z,43.01
2018-09-13T15:17:26.744Z,42.21
2018-09-13T15:19:54.386Z,42.97
2018-09-13T15:22:22.398Z,41.80
2018-09-13T15:24:50.500Z,42.70
2018-09-13T15:27:18.207Z,42.59
2018-09-13T15:29:45.870Z,41.51
2018-09-13T15:32:13.551Z,42.64
2018-09-13T15:34:41.257Z,42.04
2018-09-13T15:37:09.066Z,42.27
2018-09-13T15:39:36.947Z,42.65
2018-09-13T15:42:04.707Z,42.47
2018-09-13T15:44:33.234Z,43.04
2018-09-13T15:47:01.490Z,43.30
2018-09-13T15:49:29.481Z,43.92
2018-09-13T15:51:57.410Z,44.35
2018-09-13T15:54:25.418Z,44.89
2018-09-13T15:56:53.445Z,45.72
2018-09-13T15:59:21.224Z,46.02
2018-09-13T16:01:48.991Z,45.98
2018-09-13T16:04:19.004Z,45.60
2018-09-13T16:06:48.194Z,46.13
2018-09-13T16:09:16.330Z,45.64
2018-09-13T16:11:44.605Z,46.09
2018-09-13T16:14:12.524Z,46.99
2018-09-13T16:16:40.458Z,47.08
2018-09-13T16:19:08.238Z,47.32
2018-09-13T16:21:35.891Z,47.11
2018-09-13T16:24:03.937Z,46.94
2018-09-13T16:26:31.845Z,47.16
2018-09-13T16:28:59.825Z,47.11
2018-09-13T16:31:28.082Z,47.54
2018-09-13T16:33:56.097Z,46.99
2018-09-13T16:36:25.322Z,47.57
2018-09-13T16:38:58.863Z,47.56
2018-09-13T16:41:38.694Z,47.39
2018-09-13T16:44:06.333Z,48.16
2018-09-13T16:46:39.623Z,48.35
2018-09-13T16:49:07.734Z,48.23
2018-09-13T16:51:36.416Z,48.56
2018-09-13T16:54:04.681Z,48.85
2018-09-13T16:56:32.489Z,49.09
2018-09-13T16:59:00.850Z,49.60
2018-09-13T17:01:29.575Z,49.40
2018-09-13T17:03:57.546Z,49.60
2018-09-13T17:06:25.728Z,49.20
2018-09-13T17:08:53.652Z,48.97
2018-09-13T17:11:21.568Z,49.26
2018-09-13T17:13:49.342Z,49.77
2018-09-13T17:16:17.123Z,49.32
2018-09-13T17:18:45.209Z,49.62
2018-09-13T17:21:12.902Z,49.70
2018-09-13T17:23:41.049Z,50.47
2018-09-13T17:26:08.901Z,50.12
2018-09-13T17:28:36.784Z,50.64
2018-09-13T17:31:04.494Z,50.61
2018-09-13T17:33:32.482Z,50.67
2018-09-13T17:36:00.157Z,50.63
2018-09-13T17:38:28.317Z,50.60
2018-09-13T17:40:56.073Z,50.63
2018-09-13T17:43:24.537Z,50.31
2018-09-13T17:45:52.756Z,50.23
2018-09-13T17:48:20.550Z,50.75
2018-09-13T17:50:48.249Z,50.36
2018-09-13T17:53:16.402Z,50.32
2018-09-13T17:55:44.108Z,51.00
2018-09-13T17:58:11.855Z,50.61
2018-09-13T18:00:39.894Z,51.18
2018-09-13T18:03:07.901Z,51.44
2018-09-13T18:05:36.078Z,50.86
2018-09-13T18:08:03.958Z,50.74
2018-09-13T18:10:31.622Z,50.91
2018-09-13T18:12:59.892Z,51.77
2018-09-13T18:15:27.634Z,51.90
2018-09-13T18:17:55.342Z,52.48
2018-09-13T18:20:23.558Z,51.94
2018-09-13T18:22:51.302Z,52.52
2018-09-13T18:25:18.962Z,52.83
2018-09-13T18:27:46.680Z,52.12
2018-09-13T18:30:14.683Z,51.96
2018-09-13T18:32:42.628Z,52.46
2018-09-13T18:35:10.345Z,52.89
2018-09-13T18:37:38.647Z,52.35
2018-09-13T18:40:06.326Z,52.52
2018-09-13T18:42:34.866Z,52.48
2018-09-13T18:45:02.911Z,52.70
2018-09-13T18:47:31.166Z,53.44
2018-09-13T18:49:59.104Z,53.62
2018-09-13T18:52:26.894Z,53.35
2018-09-13T18:54:54.810Z,53.55
2018-09-13T18:57:22.731Z,53.21
2018-09-13T18:59:50.720Z,53.84
2018-09-13T19:02:18.377Z,53.96
2018-09-13T19:04:46.086Z,54.11
2018-09-13T19:07:14.092Z,54.35
2018-09-13T19:09:41.962Z,53.81
2018-09-13T19:12:09.949Z,54.65
2018-09-13T19:14:37.830Z,53.94
2018-09-13T19:17:05.703Z,54.10
2018-09-13T19:19:33.335Z,54.03
2018-09-13T19:22:00.978Z,54.36
2018-09-13T19:24:28.793Z,54.35
2018-09-13T19:26:57.395Z,54.30
2018-09-13T19:29:25.075Z,54.63
2018-09-13T19:31:52.730Z,54.55
2018-09-13T19:34:20.393Z,54.63
2018-09-13T19:36:48.036Z,55.31
2018-09-13T19:39:15.762Z,55.25
2018-09-13T19:41:43.742Z,54.83
2018-09-13T19:44:11.502Z,55.12
2018-09-13T19:46:39.707Z,54.97
2018-09-13T19:49:08.349Z,55.67
2018-09-13T19:51:36.358Z,55.21
2018-09-13T19:54:05.168Z,55.29
2018-09-13T19:56:33.824Z,55.38
2018-09-13T19:59:02.538Z,55.45
2018-09-13T20:01:31.422Z,55.30
2018-09-13T20:03:59.310Z,55.61
2018-09-13T20:06:28.011Z,54.77
2018-09-13T20:09:00.105Z,55.55
2018-09-13T20:11:29.206Z,55.63
2018-09-13T20:13:57.222Z,55.30
2018-09-13T20:16:26.116Z,55.53
2018-09-13T20:18:55.245Z,54.83
2018-09-13T20:21:23.277Z,54.65
2018-09-13T20:23:51.035Z,55.41
2018-09-13T20:26:19.873Z,54.59
2018-09-13T20:28:49.135Z,54.92
2018-09-13T20:31:17.374Z,54.95
2018-09-13T20:33:45.309Z,55.51
2018-09-13T20:36:12.990Z,54.98
2018-09-13T20:38:41.800Z,55.31
2018-09-13T20:41:10.831Z,55.05
2018-09-13T20:43:38.897Z,54.92
2018-09-13T20:46:06.725Z,54.88
2018-09-13T20:48:35.234Z,55.33
2018-09-13T20:51:03.484Z,55.03
2018-09-13T20:53:32.527Z,55.04
2018-09-13T20:56:01.249Z,54.51
2018-09-13T20:58:29.446Z,54.46
2018-09-13T21:00:58.098Z,55.24
2018-09-13T21:03:27.519Z,54.47
2018-09-13T21:05:56.668Z,54.46
2018-09-13T21:08:25.501Z,55.06
2018-09-13T21:10:54.108Z,54.70
2018-09-13T21:13:22.817Z,54.59
2018-09-13T21:15:51.766Z,54.60
2018-09-13T21:18:20.228Z,54.46
2018-09-13T21:20:48.715Z,54.61
2018-09-13T21:23:16.997Z,55.11
2018-09-13T21:25:45.073Z,54.49
2018-09-13T21:28:12.897Z,54.96
2018-09-13T21:30:40.578Z,54.41
2018-09-13T21:33:09.097Z,54.91
2018-09-13T21:35:37.150Z,54.91
2018-09-13T21:38:05.891Z,54.55
2018-09-13T21:40:34.490Z,54.33
2018-09-13T21:43:03.320Z,55.07
2018-09-13T21:45:31.119Z,54.34
2018-09-13T21:47:59.245Z,54.36
2018-09-13T21:50:27.865Z,55.10
2018-09-13T21:52:57.103Z,55.05
2018-09-13T21:55:25.735Z,54.50
2018-09-13T21:57:53.406Z,54.93
2018-09-13T22:00:21.906Z,54.83
2018-09-13T22:02:49.754Z,54.34
2018-09-13T22:05:17.883Z,54.61
2018-09-13T22:07:46.728Z,54.90
2018-09-13T22:10:14.482Z,54.13
2018-09-13T22:12:42.360Z,54.58
2018-09-13T22:15:10.096Z,53.99
2018-09-13T22:17:38.425Z,54.44
2018-09-13T22:20:06.878Z,54.87
2018-09-13T22:22:35.081Z,54.93
2018-09-13T22:25:03.425Z,54.45
2018-09-13T22:27:31.570Z,54.26
2018-09-13T22:29:59.571Z,54.68
2018-09-13T22:32:28.480Z,54.51
2018-09-13T22:34:57.237Z,54.07
2018-09-13T22:37:25.930Z,54.27
2018-09-13T22:39:53.797Z,54.07
2018-09-13T22:42:21.484Z,54.67
2018-09-13T22:44:49.288Z,54.79
2018-09-13T22:47:17.162Z,54.53
2018-09-13T22:49:46.239Z,54.66
2018-09-13T22:52:14.702Z,54.01
2018-09-13T22:54:42.864Z,54.09
2018-09-13T22:57:11.185Z,54.46
2018-09-13T22:59:39.262Z,53.65
2018-09-13T23:02:07.680Z,53.67
2018-09-13T23:04:35.375Z,53.99
2018-09-13T23:07:03.062Z,53.90
2018-09-13T23:09:30.762Z,53.41
2018-09-13T23:11:58.492Z,54.01
2018-09-13T23:14:26.199Z,53.70
2018-09-13T23:16:54.124Z,54.30
2018-09-13T23:19:22.377Z,54.46
2018-09-13T23:21:50.118Z,54.06
2018-09-13T23:24:18.095Z,54.22
2018-09-13T23:26:46.452Z,54.34
2018-09-13T23:29:14.137Z,54.64
2018-09-13T23:31:41.840Z,54.46
2018-09-13T23:34:09.735Z,54.73
2018-09-13T23:36:37.404Z,54.31
2018-09-13T23:39:08.164Z,54.17
2018-09-13T23:41:36.418Z,54.85
2018-09-13T23:44:04.303Z,55.02
2018-09-13T23:46:32.541Z,54.83
2018-09-13T23:49:00.212Z,54.80
2018-09-13T23:51:28.312Z,54.83
2018-09-13T23:53:56.013Z,54.33
2018-09-13T23:56:23.988Z,54.38
2018-09-13T23:58:51.688Z,54.55
